createdAt,value
2022-11-01T00:01:55.080Z,6.82
2022-11-01T00:05:01.630Z,7.08
2022-11-01T00:08:09.598Z,6.72
2022-11-01T00:11:17.534Z,6.72
2022-11-01T00:14:24.054Z,6.85
2022-11-01T00:17:30.314Z,7.05
2022-11-01T00:20:36.465Z,7.04
2022-11-01T00:23:45.450Z,6.66
2022-11-01T00:26:51.442Z,7.02
2022-11-01T00:29:57.443Z,6.94
2022-11-01T00:33:03.284Z,6.97
2022-11-01T00:36:10.155Z,6.95
2022-11-01T00:39:17.769Z,6.84
2022-11-01T00:42:23.949Z,6.32
2022-11-01T00:45:29.910Z,6.03
2022-11-01T00:48:35.964Z,6.66
2022-11-01T00:51:42.077Z,6.00
2022-11-01T00:54:49.534Z,5.72
2022-11-01T00:57:55.896Z,5.58
2022-11-01T01:01:02.584Z,5.52
2022-11-01T01:04:08.707Z,6.21
2022-11-01T01:07:14.797Z,6.18
2022-11-01T01:10:22.281Z,6.43
2022-11-01T01:13:28.517Z,6.20
2022-11-01T01:16:34.643Z,6.34
2022-11-01T01:19:40.580Z,6.05
2022-11-01T01:22:46.448Z,5.99
2022-11-01T01:25:53.841Z,6.29
2022-11-01T01:29:00.680Z,6.35
2022-11-01T01:32:06.985Z,6.57
2022-11-01T01:35:13.108Z,6.53
2022-11-01T01:38:19.578Z,6.46
2022-11-01T01:41:44.778Z,6.34
2022-11-01T01:45:15.719Z,6.08
2022-11-01T01:48:25.758Z,5.91
2022-11-01T01:51:31.839Z,5.69
2022-11-01T01:54:38.086Z,5.42
2022-11-01T01:57:46.167Z,5.62
2022-11-01T02:00:54.282Z,5.17
2022-11-01T02:04:00.727Z,5.18
2022-11-01T02:07:07.067Z,5.61
2022-11-01T02:10:15.836Z,5.67
2022-11-01T02:13:23.579Z,5.80
2022-11-01T02:16:52.233Z,5.31
2022-11-01T02:20:17.884Z,5.44
2022-11-01T02:24:03.254Z,5.56
2022-11-01T02:27:15.477Z,5.57
2022-11-01T02:30:22.641Z,5.06
2022-11-01T02:33:35.295Z,4.79
2022-11-01T02:36:48.593Z,4.61
2022-11-01T02:39:59.353Z,4.63
2022-11-01T02:43:10.162Z,4.79
2022-11-01T02:46:34.598Z,5.43
2022-11-01T02:49:46.101Z,5.40
2022-11-01T02:52:53.253Z,5.58
2022-11-01T02:55:59.912Z,5.68
2022-11-01T02:59:13.702Z,5.31
2022-11-01T03:02:39.687Z,5.58
2022-11-01T03:06:08.941Z,5.60
2022-11-01T03:09:16.537Z,5.96
2022-11-01T03:15:41.501Z,5.43
2022-11-01T03:19:00.846Z,5.58
2022-11-01T03:22:14.541Z,5.65
2022-11-01T03:25:40.240Z,4.88
2022-11-01T03:28:51.374Z,4.72
2022-11-01T03:31:59.329Z,4.20
2022-11-01T03:35:09.989Z,4.43
2022-11-01T03:38:21.079Z,4.80
2022-11-01T03:41:30.501Z,4.85
2022-11-01T03:44:42.656Z,4.98
2022-11-01T03:47:49.096Z,5.21
2022-11-01T03:50:57.137Z,5.47
2022-11-01T03:54:06.523Z,5.47
2022-11-01T03:57:12.814Z,5.31
2022-11-01T04:00:22.233Z,5.34
2022-11-01T04:03:28.193Z,5.15
2022-11-01T04:06:35.104Z,4.77
2022-11-01T04:09:42.514Z,5.01
2022-11-01T04:12:50.102Z,4.84
2022-11-01T04:16:14.003Z,4.22
2022-11-01T04:19:37.459Z,4.56
2022-11-01T04:22:43.477Z,4.65
2022-11-01T04:25:51.243Z,4.91
2022-11-01T04:29:00.112Z,4.87
2022-11-01T04:32:06.410Z,4.70
2022-11-01T04:35:12.697Z,5.15
2022-11-01T04:38:18.729Z,5.31
2022-11-01T04:41:27.770Z,4.48
2022-11-01T04:44:33.673Z,4.57
2022-11-01T04:47:39.837Z,3.80
2022-11-01T04:50:46.109Z,4.10
2022-11-01T04:53:53.623Z,4.00
2022-11-01T04:57:01.297Z,4.23
2022-11-01T05:00:11.313Z,4.77
2022-11-01T05:03:17.269Z,5.05
2022-11-01T05:06:23.397Z,5.05
2022-11-01T05:09:30.837Z,5.18
2022-11-01T05:12:39.261Z,5.01
2022-11-01T05:15:59.664Z,4.04
2022-11-01T05:19:11.373Z,3.79
2022-11-01T05:22:17.566Z,3.72
2022-11-01T05:25:23.619Z,3.74
2022-11-01T05:28:31.180Z,4.00
2022-11-01T05:31:37.582Z,4.23
2022-11-01T05:34:44.224Z,4.41
2022-11-01T05:37:50.457Z,4.72
2022-11-01T05:40:56.725Z,5.09
2022-11-01T05:44:04.786Z,5.21
2022-11-01T05:47:13.326Z,5.65
2022-11-01T05:50:23.461Z,5.95
2022-11-01T05:53:30.042Z,6.47
2022-11-01T05:56:36.103Z,6.89
2022-11-01T05:59:43.786Z,6.59
2022-11-01T06:02:50.385Z,7.20
2022-11-01T06:05:56.945Z,7.21
2022-11-01T06:09:03.277Z,6.69
2022-11-01T06:12:09.896Z,7.24
2022-11-01T06:15:18.051Z,7.85
2022-11-01T06:18:24.140Z,7.50
2022-11-01T06:21:30.646Z,7.61
2022-11-01T06:24:36.808Z,8.03
2022-11-01T06:27:42.952Z,8.15
2022-11-01T06:30:50.283Z,8.50
2022-11-01T06:33:56.406Z,8.53
2022-11-01T06:37:02.760Z,8.75
2022-11-01T06:40:10.905Z,8.67
2022-11-01T06:43:17.123Z,8.86
2022-11-01T06:46:24.760Z,9.12
2022-11-01T06:49:30.831Z,9.32
2022-11-01T06:52:37.405Z,9.61
2022-11-01T06:55:43.293Z,9.77
2022-11-01T06:58:50.330Z,10.33
2022-11-01T07:01:57.932Z,10.30
2022-11-01T07:05:04.067Z,10.33
2022-11-01T07:08:13.115Z,10.88
2022-11-01T07:11:19.740Z,10.96
2022-11-01T07:14:26.194Z,10.75
2022-11-01T07:17:33.858Z,11.14
2022-11-01T07:20:42.638Z,11.58
2022-11-01T07:23:49.312Z,11.72
2022-11-01T07:26:55.710Z,11.71
2022-11-01T07:30:01.832Z,11.78
2022-11-01T07:33:09.837Z,12.16
2022-11-01T07:36:15.987Z,12.25
2022-11-01T07:39:22.141Z,12.08
2022-11-01T07:42:28.058Z,12.40
2022-11-01T07:45:36.044Z,12.66
2022-11-01T07:48:43.409Z,12.59
2022-11-01T07:51:49.515Z,13.17
2022-11-01T07:54:55.570Z,12.98
2022-11-01T07:58:02.136Z,13.45
2022-11-01T08:01:08.563Z,13.62
2022-11-01T08:04:16.479Z,13.75
2022-11-01T08:07:22.538Z,13.69
2022-11-01T08:10:30.088Z,13.83
2022-11-01T08:13:36.015Z,14.20
2022-11-01T08:16:41.906Z,14.73
2022-11-01T08:19:49.422Z,14.64
2022-11-01T08:22:56.242Z,14.27
2022-11-01T08:26:02.914Z,14.57
2022-11-01T08:29:09.412Z,14.74
2022-11-01T08:32:15.684Z,15.11
2022-11-01T08:35:23.068Z,15.62
2022-11-01T08:38:29.713Z,15.49
2022-11-01T08:41:37.320Z,15.79
2022-11-01T08:44:44.060Z,15.78
2022-11-01T08:47:49.917Z,15.91
2022-11-01T08:50:57.146Z,16.43
2022-11-01T08:54:03.273Z,16.52
2022-11-01T08:57:09.555Z,16.73
2022-11-01T09:00:16.917Z,16.90
2022-11-01T09:03:22.999Z,16.90
2022-11-01T09:06:33.861Z,17.08
2022-11-01T09:09:42.248Z,16.98
2022-11-01T09:12:48.145Z,17.32
2022-11-01T09:15:57.284Z,17.97
2022-11-01T09:19:08.084Z,18.49
2022-11-01T09:22:15.732Z,18.76
2022-11-01T09:25:22.034Z,18.36
2022-11-01T09:28:32.814Z,18.86
2022-11-01T09:31:40.725Z,18.51
2022-11-01T09:34:49.144Z,19.07
2022-11-01T09:38:00.742Z,18.70
2022-11-01T09:41:14.492Z,18.33
2022-11-01T09:44:26.233Z,18.97
2022-11-01T09:47:33.980Z,18.88
2022-11-01T09:50:43.910Z,19.06
2022-11-01T09:53:55.252Z,19.54
2022-11-01T09:57:13.089Z,19.68
2022-11-01T10:00:21.683Z,19.89
2022-11-01T10:03:55.322Z,20.01
2022-11-01T10:07:06.889Z,20.02
2022-11-01T10:10:25.601Z,20.29
2022-11-01T10:13:45.369Z,20.56
2022-11-01T10:17:01.241Z,20.56
2022-11-01T10:20:12.857Z,20.29
2022-11-01T10:23:23.216Z,20.51
2022-11-01T10:26:32.350Z,21.28
2022-11-01T10:29:47.271Z,21.08
2022-11-01T10:32:58.256Z,21.26
2022-11-01T10:36:07.193Z,21.85
2022-11-01T10:43:02.144Z,21.41
2022-11-01T10:46:12.749Z,21.69
2022-11-01T10:49:24.817Z,21.88
2022-11-01T10:52:35.108Z,22.61
2022-11-01T10:55:45.449Z,21.91
2022-11-01T10:59:00.651Z,22.58
2022-11-01T11:02:16.475Z,22.37
2022-11-01T11:05:24.778Z,22.51
2022-11-01T11:08:30.885Z,22.63
2022-11-01T11:11:42.282Z,22.58
2022-11-01T11:14:54.531Z,22.83
2022-11-01T11:18:03.736Z,22.65
2022-11-01T11:21:12.217Z,23.39
2022-11-01T11:24:21.159Z,23.30
2022-11-01T11:27:29.832Z,23.07
2022-11-01T11:30:37.561Z,23.27
2022-11-01T11:33:50.365Z,23.01
2022-11-01T11:36:57.156Z,23.18
2022-11-01T11:40:20.509Z,23.64
2022-11-01T11:43:33.970Z,23.81
2022-11-01T11:46:58.160Z,23.78
2022-11-01T11:50:24.873Z,23.99
2022-11-01T11:53:32.516Z,24.12
2022-11-01T11:56:38.957Z,24.13
2022-11-01T12:03:03.462Z,24.47
2022-11-01T12:06:10.652Z,24.73
2022-11-01T12:09:36.197Z,24.32
2022-11-01T12:12:42.776Z,24.33
2022-11-01T12:15:48.793Z,24.73
2022-11-01T12:18:58.851Z,24.92
2022-11-01T12:22:05.649Z,24.69
2022-11-01T12:25:16.221Z,24.76
2022-11-01T12:28:28.088Z,24.89
2022-11-01T12:31:34.817Z,24.53
2022-11-01T12:34:45.504Z,24.86
2022-11-01T12:38:02.274Z,24.77
2022-11-01T12:41:33.714Z,24.67
2022-11-01T12:44:43.187Z,24.40
2022-11-01T12:47:55.494Z,25.34
2022-11-01T12:51:07.925Z,24.77
2022-11-01T12:54:20.049Z,25.05
2022-11-01T12:57:26.157Z,25.07
2022-11-01T13:00:47.105Z,25.30
2022-11-01T13:04:04.413Z,24.98
2022-11-01T13:07:26.378Z,25.19
2022-11-01T13:10:36.712Z,25.11
2022-11-01T13:13:48.262Z,25.02
2022-11-01T13:17:02.631Z,24.58
2022-11-01T13:20:25.715Z,25.24
2022-11-01T13:23:37.592Z,24.92
2022-11-01T13:27:01.723Z,24.66
2022-11-01T13:30:12.930Z,25.13
2022-11-01T13:33:29.460Z,24.89
2022-11-01T13:36:41.815Z,24.34
2022-11-01T13:40:01.815Z,25.04
2022-11-01T13:43:13.707Z,24.24
2022-11-01T13:46:56.062Z,23.11
2022-11-01T13:50:26.973Z,22.95
2022-11-01T13:53:37.587Z,22.68
2022-11-01T13:56:51.722Z,22.17
2022-11-01T14:00:00.376Z,22.20
2022-11-01T14:03:35.131Z,21.91
2022-11-01T14:06:42.273Z,21.65
2022-11-01T14:09:50.094Z,21.21
2022-11-01T14:13:16.664Z,20.96
2022-11-01T14:16:23.004Z,20.82
2022-11-01T14:19:30.605Z,20.70
2022-11-01T14:22:36.828Z,20.54
2022-11-01T14:25:42.876Z,20.47
2022-11-01T14:28:52.383Z,20.28
2022-11-01T14:32:00.241Z,20.08
2022-11-01T14:35:17.871Z,20.00
2022-11-01T14:38:32.263Z,19.90
2022-11-01T14:41:41.258Z,19.31
2022-11-01T14:44:52.660Z,19.05
2022-11-01T14:48:04.146Z,18.83
2022-11-01T14:51:18.702Z,18.77
2022-11-01T14:54:29.765Z,19.07
2022-11-01T14:57:36.871Z,18.80
2022-11-01T15:00:44.733Z,18.45
2022-11-01T15:03:58.812Z,18.38
2022-11-01T15:07:05.310Z,18.09
2022-11-01T15:10:14.485Z,18.08
2022-11-01T15:13:21.791Z,17.85
2022-11-01T15:16:30.244Z,17.10
2022-11-01T15:19:38.945Z,17.08
2022-11-01T15:22:45.568Z,17.13
2022-11-01T15:25:56.253Z,16.36
2022-11-01T15:29:05.668Z,16.39
2022-11-01T15:32:24.321Z,16.28
2022-11-01T15:35:30.820Z,16.19
2022-11-01T15:38:49.834Z,16.16
2022-11-01T15:41:57.894Z,16.35
2022-11-01T15:45:22.932Z,16.04
2022-11-01T15:48:33.805Z,16.27
2022-11-01T15:51:47.059Z,16.41
2022-11-01T15:55:01.294Z,15.26
2022-11-01T15:58:14.443Z,14.73
2022-11-01T16:01:23.705Z,13.72
2022-11-01T16:04:38.775Z,14.06
2022-11-01T16:07:45.927Z,14.86
2022-11-01T16:10:52.600Z,15.50
2022-11-01T16:14:02.028Z,14.59
2022-11-01T16:17:22.967Z,13.92
2022-11-01T16:20:36.916Z,13.99
2022-11-01T16:23:51.144Z,13.61
2022-11-01T16:27:00.174Z,13.51
2022-11-01T16:30:11.437Z,13.16
2022-11-01T16:33:35.315Z,13.48
2022-11-01T16:36:43.353Z,13.17
2022-11-01T16:39:49.923Z,13.34
2022-11-01T16:42:58.270Z,13.25
2022-11-01T16:46:05.728Z,12.69
2022-11-01T16:49:20.475Z,12.20
2022-11-01T16:52:27.788Z,12.20
2022-11-01T16:55:36.483Z,12.51
2022-11-01T16:58:43.798Z,12.39
2022-11-01T17:01:49.989Z,12.28
2022-11-01T17:04:59.997Z,12.16
2022-11-01T17:08:07.511Z,11.70
2022-11-01T17:11:14.745Z,11.54
2022-11-01T17:14:21.357Z,11.63
2022-11-01T17:17:27.541Z,11.45
2022-11-01T17:20:34.257Z,11.59
2022-11-01T17:23:41.806Z,11.81
2022-11-01T17:26:48.580Z,11.51
2022-11-01T17:29:54.512Z,11.43
2022-11-01T17:33:00.291Z,11.40
2022-11-01T17:36:24.462Z,11.09
2022-11-01T17:39:32.479Z,10.88
2022-11-01T17:42:38.817Z,10.51
2022-11-01T17:45:45.272Z,10.97
2022-11-01T17:48:51.677Z,10.73
2022-11-01T17:51:58.043Z,10.67
2022-11-01T17:55:06.592Z,10.76
2022-11-01T17:58:13.268Z,10.94
2022-11-01T18:01:20.505Z,10.92
2022-11-01T18:04:26.697Z,10.66
2022-11-01T18:07:38.054Z,10.75
2022-11-01T18:10:54.181Z,10.63
2022-11-01T18:14:05.281Z,10.54
2022-11-01T18:17:32.132Z,10.18
2022-11-01T18:20:46.330Z,10.07
2022-11-01T18:23:55.653Z,9.80
2022-11-01T18:27:03.505Z,9.86
2022-11-01T18:30:14.004Z,10.24
2022-11-01T18:33:30.635Z,10.13
2022-11-01T18:36:46.675Z,10.05
2022-11-01T18:40:01.594Z,9.87
2022-11-01T18:43:10.191Z,9.79
2022-11-01T18:46:27.311Z,9.85
2022-11-01T18:49:33.577Z,9.52
2022-11-01T18:52:39.616Z,9.26
2022-11-01T18:55:47.741Z,9.36
2022-11-01T18:58:58.910Z,9.40
2022-11-01T19:02:15.265Z,9.62
2022-11-01T19:05:21.577Z,9.53
2022-11-01T19:08:28.750Z,9.47
2022-11-01T19:11:35.357Z,9.53
2022-11-01T19:14:43.765Z,9.13
2022-11-01T19:17:56.381Z,9.19
2022-11-01T19:21:02.453Z,9.47
2022-11-01T19:24:28.549Z,9.34
2022-11-01T19:27:36.455Z,9.54
2022-11-01T19:30:50.774Z,9.34
2022-11-01T19:34:00.212Z,8.84
2022-11-01T19:37:20.803Z,9.06
2022-11-01T19:40:31.882Z,9.17
2022-11-01T19:43:37.889Z,8.87
2022-11-01T19:46:45.510Z,9.10
2022-11-01T19:49:51.732Z,8.71
2022-11-01T19:52:59.521Z,8.62
2022-11-01T19:56:07.770Z,8.86
2022-11-01T19:59:16.905Z,8.53
2022-11-01T20:02:25.015Z,8.56
2022-11-01T20:05:34.657Z,8.88
2022-11-01T20:08:41.516Z,8.71
2022-11-01T20:11:48.124Z,8.03
2022-11-01T20:14:54.788Z,7.83
2022-11-01T20:18:03.844Z,7.74
2022-11-01T20:21:10.754Z,8.00
2022-11-01T20:24:16.849Z,7.80
2022-11-01T20:27:23.414Z,7.78
2022-11-01T20:30:29.556Z,8.21
2022-11-01T20:33:37.076Z,8.45
2022-11-01T20:36:44.605Z,8.08
2022-11-01T20:39:53.241Z,8.03
2022-11-01T20:43:00.312Z,8.14
2022-11-01T20:46:07.021Z,8.07
2022-11-01T20:49:14.467Z,7.85
2022-11-01T20:55:47.518Z,7.63
2022-11-01T20:58:53.727Z,7.82
2022-11-01T21:02:01.196Z,7.46
2022-11-01T21:05:19.494Z,7.73
2022-11-01T21:08:28.084Z,6.97
2022-11-01T21:11:44.299Z,7.25
2022-11-01T21:14:51.144Z,7.26
2022-11-01T21:17:59.156Z,7.02
2022-11-01T21:21:34.882Z,7.65
2022-11-01T21:24:46.075Z,7.89
2022-11-01T21:27:52.530Z,7.61
2022-11-01T21:31:07.622Z,7.47
2022-11-01T21:34:24.603Z,6.99
2022-11-01T21:37:31.157Z,7.54
2022-11-01T21:40:39.049Z,7.78
2022-11-01T21:43:46.028Z,7.67
2022-11-01T21:46:53.861Z,7.47
2022-11-01T21:50:00.123Z,7.25
2022-11-01T21:53:06.658Z,7.27
2022-11-01T21:56:14.350Z,6.89
2022-11-01T21:59:20.714Z,6.45
2022-11-01T22:02:27.383Z,6.60
2022-11-01T22:05:33.626Z,6.56
2022-11-01T22:08:39.748Z,6.81
2022-11-01T22:11:47.324Z,7.01
2022-11-01T22:14:53.393Z,6.80
2022-11-01T22:17:59.486Z,7.16
2022-11-01T22:21:05.914Z,7.04
2022-11-01T22:24:12.270Z,7.11
2022-11-01T22:27:20.088Z,6.83
2022-11-01T22:30:26.048Z,6.52
2022-11-01T22:33:32.457Z,5.83
2022-11-01T22:36:41.574Z,6.05
2022-11-01T22:39:52.950Z,6.21
2022-11-01T22:43:18.672Z,5.99
2022-11-01T22:46:27.317Z,6.51
2022-11-01T22:49:36.594Z,6.29
2022-11-01T22:52:45.122Z,5.91
2022-11-01T22:55:55.342Z,6.32
2022-11-01T22:59:02.712Z,6.58
2022-11-01T23:02:26.968Z,6.77
2022-11-01T23:05:33.217Z,6.85
2022-11-01T23:08:39.664Z,6.23
2022-11-01T23:12:04.277Z,6.34
2022-11-01T23:15:27.273Z,6.52
2022-11-01T23:18:34.751Z,6.21
2022-11-01T23:21:41.113Z,6.40
2022-11-01T23:24:49.945Z,6.05
2022-11-01T23:27:56.069Z,6.16
2022-11-01T23:31:04.748Z,5.65
2022-11-01T23:34:11.867Z,5.28
2022-11-01T23:37:21.658Z,5.16
2022-11-01T23:40:33.884Z,5.74
2022-11-01T23:43:41.509Z,6.10
2022-11-01T23:46:49.204Z,5.77
2022-11-01T23:50:01.442Z,5.99
2022-11-01T23:53:13.431Z,6.10
2022-11-01T23:56:21.237Z,5.70
2022-11-01T23:59:27.404Z,5.84
